sensor_id;sensor_type;location;lat;lon;timestamp;P1;durP1;ratioP1;P2;durP2;ratioP2
10874;SDS011;5490;52.200;8.786;2023-04-03T07:36:20;4.20;;;1.27;;
10874;SDS011;5490;52.200;8.786;2023-04-03T07:38:48;3.42;;;1.15;;
10874;SDS011;5490;52.200;8.786;2023-04-03T07:41:15;5.40;;;1.37;;
10874;SDS011;5490;52.200;8.786;2023-04-03T07:46:18;5.77;;;1.10;;
10874;SDS011;5490;52.200;8.786;2023-04-03T07:48:45;1.77;;;1.10;;
10874;SDS011;5490;52.200;8.786;2023-04-03T07:51:12;6.10;;;1.23;;
10874;SDS011;5490;52.200;8.786;2023-04-03T07:53:40;5.45;;;1.02;;
10874;SDS011;5490;52.200;8.786;2023-04-03T07:56:07;6.13;;;1.55;;
10874;SDS011;5490;52.200;8.786;2023-04-03T07:58:34;1.50;;;0.93;;
10874;SDS011;5490;52.200;8.786;2023-04-03T08:01:01;1.45;;;0.98;;
10874;SDS011;5490;52.200;8.786;2023-04-03T08:03:29;0.90;;;0.77;;
10874;SDS011;5490;52.200;8.786;2023-04-03T08:06:00;1.48;;;1.15;;
10874;SDS011;5490;52.200;8.786;2023-04-03T08:08:29;1.48;;;0.90;;
10874;SDS011;5490;52.200;8.786;2023-04-03T08:10:57;4.60;;;0.90;;
10874;SDS011;5490;52.200;8.786;2023-04-03T08:13:30;2.55;;;1.30;;
10874;SDS011;5490;52.200;8.786;2023-04-03T08:15:57;1.52;;;1.35;;
10874;SDS011;5490;52.200;8.786;2023-04-03T08:18:34;1.00;;;0.85;;
10874;SDS011;5490;52.200;8.786;2023-04-03T08:21:05;0.93;;;0.82;;
10874;SDS011;5490;52.200;8.786;2023-04-03T08:23:36;2.17;;;0.90;;
10874;SDS011;5490;52.200;8.786;2023-04-03T08:26:07;2.00;;;0.82;;
10874;SDS011;5490;52.200;8.786;2023-04-03T08:28:35;1.95;;;1.10;;
10874;SDS011;5490;52.200;8.786;2023-04-03T08:31:03;0.80;;;0.80;;
10874;SDS011;5490;52.200;8.786;2023-04-03T08:33:31;1.83;;;0.70;;
10874;SDS011;5490;52.200;8.786;2023-04-03T08:36:02;2.60;;;0.93;;
10874;SDS011;5490;52.200;8.786;2023-04-03T08:38:29;4.35;;;0.95;;
10874;SDS011;5490;52.200;8.786;2023-04-03T08:41:01;0.45;;;0.45;;
10874;SDS011;5490;52.200;8.786;2023-04-03T08:43:36;3.92;;;0.80;;
10874;SDS011;5490;52.200;8.786;2023-04-03T08:46:16;2.17;;;1.35;;
10874;SDS011;5490;52.200;8.786;2023-04-03T08:48:47;2.47;;;0.98;;
10874;SDS011;5490;52.200;8.786;2023-04-03T08:51:18;1.45;;;0.85;;
10874;SDS011;5490;52.200;8.786;2023-04-03T08:53:51;4.10;;;0.85;;
10874;SDS011;5490;52.200;8.786;2023-04-03T08:56:23;0.88;;;0.80;;
10874;SDS011;5490;52.200;8.786;2023-04-03T08:58:56;0.80;;;0.80;;
10874;SDS011;5490;52.200;8.786;2023-04-03T09:01:27;3.63;;;1.08;;
10874;SDS011;5490;52.200;8.786;2023-04-03T09:04:02;1.05;;;0.82;;
10874;SDS011;5490;52.200;8.786;2023-04-03T09:06:37;4.38;;;0.70;;
10874;SDS011;5490;52.200;8.786;2023-04-03T09:09:08;3.88;;;1.00;;
10874;SDS011;5490;52.200;8.786;2023-04-03T09:11:43;0.80;;;0.75;;
10874;SDS011;5490;52.200;8.786;2023-04-03T09:14:22;0.60;;;0.60;;
10874;SDS011;5490;52.200;8.786;2023-04-03T09:16:57;0.98;;;0.60;;
10874;SDS011;5490;52.200;8.786;2023-04-03T09:19:32;2.25;;;0.52;;
10874;SDS011;5490;52.200;8.786;2023-04-03T09:22:11;0.95;;;0.60;;
10874;SDS011;5490;52.200;8.786;2023-04-03T09:24:43;0.85;;;0.63;;
10874;SDS011;5490;52.200;8.786;2023-04-03T09:27:13;0.75;;;0.70;;
10874;SDS011;5490;52.200;8.786;2023-04-03T09:29:41;1.65;;;0.93;;
10874;SDS011;5490;52.200;8.786;2023-04-03T09:34:58;1.43;;;0.40;;
10874;SDS011;5490;52.200;8.786;2023-04-03T09:37:39;1.23;;;0.60;;
10874;SDS011;5490;52.200;8.786;2023-04-03T09:42:59;2.63;;;1.00;;
10874;SDS011;5490;52.200;8.786;2023-04-03T09:45:28;1.03;;;0.60;;
10874;SDS011;5490;52.200;8.786;2023-04-03T09:48:05;4.83;;;0.60;;
10874;SDS011;5490;52.200;8.786;2023-04-03T09:50:41;0.40;;;0.40;;
10874;SDS011;5490;52.200;8.786;2023-04-03T09:53:29;1.57;;;0.60;;
10874;SDS011;5490;52.200;8.786;2023-04-03T10:01:43;3.00;;;0.80;;
10874;SDS011;5490;52.200;8.786;2023-04-03T10:04:25;1.10;;;0.63;;
10874;SDS011;5490;52.200;8.786;2023-04-03T10:06:53;4.83;;;1.13;;
10874;SDS011;5490;52.200;8.786;2023-04-03T10:09:21;0.93;;;0.53;;
10874;SDS011;5490;52.200;8.786;2023-04-03T10:12:00;1.73;;;0.63;;
10874;SDS011;5490;52.200;8.786;2023-04-03T10:14:29;0.83;;;0.67;;
10874;SDS011;5490;52.200;8.786;2023-04-03T10:16:59;1.80;;;0.97;;
10874;SDS011;5490;52.200;8.786;2023-04-03T10:21:57;2.30;;;1.00;;
10874;SDS011;5490;52.200;8.786;2023-04-03T10:24:30;0.80;;;0.80;;
10874;SDS011;5490;52.200;8.786;2023-04-03T10:27:05;2.37;;;0.80;;
10874;SDS011;5490;52.200;8.786;2023-04-03T10:29:40;0.60;;;0.60;;
10874;SDS011;5490;52.200;8.786;2023-04-03T10:32:43;1.67;;;0.97;;
10874;SDS011;5490;52.200;8.786;2023-04-03T10:35:26;0.97;;;0.83;;
10874;SDS011;5490;52.200;8.786;2023-04-03T10:38:21;2.83;;;0.83;;
10874;SDS011;5490;52.200;8.786;2023-04-03T11:07:25;1.13;;;0.30;;
10874;SDS011;5490;52.200;8.786;2023-04-03T11:09:56;5.23;;;1.07;;
10874;SDS011;5490;52.200;8.786;2023-04-03T11:12:33;0.97;;;0.50;;
10874;SDS011;5490;52.200;8.786;2023-04-03T11:15:04;1.80;;;0.60;;
10874;SDS011;5490;52.200;8.786;2023-04-03T11:17:38;1.03;;;0.60;;
10874;SDS011;5490;52.200;8.786;2023-04-03T11:20:14;1.80;;;1.07;;
10874;SDS011;5490;52.200;8.786;2023-04-03T11:22:47;0.53;;;0.50;;
10874;SDS011;5490;52.200;8.786;2023-04-03T11:25:19;2.20;;;0.50;;
10874;SDS011;5490;52.200;8.786;2023-04-03T11:27:49;4.93;;;0.63;;
10874;SDS011;5490;52.200;8.786;2023-04-03T11:30:23;0.77;;;0.60;;
10874;SDS011;5490;52.200;8.786;2023-04-03T11:33:00;0.57;;;0.50;;
10874;SDS011;5490;52.200;8.786;2023-04-03T11:35:53;3.10;;;0.70;;
10874;SDS011;5490;52.200;8.786;2023-04-03T11:38:25;2.83;;;0.90;;
10874;SDS011;5490;52.200;8.786;2023-04-03T11:40:57;1.63;;;0.47;;
10874;SDS011;5490;52.200;8.786;2023-04-03T11:43:27;3.90;;;0.63;;
10874;SDS011;5490;52.200;8.786;2023-04-03T11:45:56;1.03;;;0.70;;
10874;SDS011;5490;52.200;8.786;2023-04-03T11:51:38;2.40;;;0.90;;
10874;SDS011;5490;52.200;8.786;2023-04-03T12:03:30;2.60;;;1.37;;
10874;SDS011;5490;52.200;8.786;2023-04-03T12:09:22;2.00;;;0.83;;
10874;SDS011;5490;52.200;8.786;2023-04-03T12:11:53;1.03;;;0.90;;
10874;SDS011;5490;52.200;8.786;2023-04-03T12:17:56;0.87;;;0.50;;
10874;SDS011;5490;52.200;8.786;2023-04-03T12:23:23;1.53;;;0.90;;
10874;SDS011;5490;52.200;8.786;2023-04-03T12:25:51;0.80;;;0.60;;
10874;SDS011;5490;52.200;8.786;2023-04-03T12:28:26;1.10;;;0.60;;
10874;SDS011;5490;52.200;8.786;2023-04-03T12:30:53;1.17;;;0.60;;
10874;SDS011;5490;52.200;8.786;2023-04-03T12:33:24;0.83;;;0.30;;
10874;SDS011;5490;52.200;8.786;2023-04-03T12:36:04;0.43;;;0.43;;
10874;SDS011;5490;52.200;8.786;2023-04-03T12:38:49;0.43;;;0.43;;
10874;SDS011;5490;52.200;8.786;2023-04-03T12:41:31;1.47;;;0.60;;
10874;SDS011;5490;52.200;8.786;2023-04-03T12:44:08;1.13;;;1.03;;
10874;SDS011;5490;52.200;8.786;2023-04-03T12:46:49;1.00;;;0.80;;
10874;SDS011;5490;52.200;8.786;2023-04-03T12:49:30;2.37;;;0.60;;
10874;SDS011;5490;52.200;8.786;2023-04-03T12:52:03;1.37;;;0.60;;
10874;SDS011;5490;52.200;8.786;2023-04-03T12:54:38;2.17;;;1.07;;
10874;SDS011;5490;52.200;8.786;2023-04-03T12:57:09;1.47;;;0.70;;
10874;SDS011;5490;52.200;8.786;2023-04-03T12:59:39;1.17;;;0.43;;
10874;SDS011;5490;52.200;8.786;2023-04-03T13:02:14;1.00;;;0.73;;
10874;SDS011;5490;52.200;8.786;2023-04-03T13:04:48;1.40;;;0.70;;
10874;SDS011;5490;52.200;8.786;2023-04-03T13:07:21;0.87;;;0.73;;
10874;SDS011;5490;52.200;8.786;2023-04-03T13:09:57;1.33;;;0.80;;
10874;SDS011;5490;52.200;8.786;2023-04-03T13:12:25;0.67;;;0.47;;
10874;SDS011;5490;52.200;8.786;2023-04-03T13:14:55;0.63;;;0.40;;
10874;SDS011;5490;52.200;8.786;2023-04-03T13:48:51;1.30;;;0.33;;
10874;SDS011;5490;52.200;8.786;2023-04-03T13:51:21;1.20;;;1.00;;
10874;SDS011;5490;52.200;8.786;2023-04-03T13:53:50;1.90;;;1.07;;
10874;SDS011;5490;52.200;8.786;2023-04-03T13:56:21;0.50;;;0.50;;
10874;SDS011;5490;52.200;8.786;2023-04-03T13:58:57;1.93;;;0.47;;
10874;SDS011;5490;52.200;8.786;2023-04-03T14:04:21;1.27;;;0.73;;
10874;SDS011;5490;52.200;8.786;2023-04-03T14:06:54;0.60;;;0.50;;
10874;SDS011;5490;52.200;8.786;2023-04-03T14:09:22;1.90;;;0.60;;
10874;SDS011;5490;52.200;8.786;2023-04-03T14:11:52;4.40;;;0.77;;
10874;SDS011;5490;52.200;8.786;2023-04-03T14:14:22;2.63;;;0.77;;
10874;SDS011;5490;52.200;8.786;2023-04-03T14:16:53;0.70;;;0.57;;
10874;SDS011;5490;52.200;8.786;2023-04-03T14:19:25;0.73;;;0.60;;
10874;SDS011;5490;52.200;8.786;2023-04-03T14:21:55;2.47;;;0.53;;
10874;SDS011;5490;52.200;8.786;2023-04-03T14:24:22;2.27;;;0.87;;
10874;SDS011;5490;52.200;8.786;2023-04-03T14:26:49;1.40;;;0.73;;
10874;SDS011;5490;52.200;8.786;2023-04-03T14:29:17;1.70;;;0.50;;
10874;SDS011;5490;52.200;8.786;2023-04-03T14:31:45;1.57;;;0.60;;
10874;SDS011;5490;52.200;8.786;2023-04-03T14:34:13;1.43;;;0.73;;
10874;SDS011;5490;52.200;8.786;2023-04-03T14:36:43;2.77;;;0.77;;
10874;SDS011;5490;52.200;8.786;2023-04-03T14:39:11;0.30;;;0.30;;
10874;SDS011;5490;52.200;8.786;2023-04-03T14:41:43;0.33;;;0.33;;
10874;SDS011;5490;52.200;8.786;2023-04-03T14:44:10;0.90;;;0.77;;
10874;SDS011;5490;52.200;8.786;2023-04-03T14:46:40;1.23;;;0.80;;
10874;SDS011;5490;52.200;8.786;2023-04-03T14:49:10;0.80;;;0.73;;
10874;SDS011;5490;52.200;8.786;2023-04-03T14:51:42;2.40;;;0.93;;
10874;SDS011;5490;52.200;8.786;2023-04-03T14:54:11;3.30;;;0.67;;
10874;SDS011;5490;52.200;8.786;2023-04-03T14:56:40;1.70;;;1.10;;
10874;SDS011;5490;52.200;8.786;2023-04-03T14:59:09;0.87;;;0.60;;
10874;SDS011;5490;52.200;8.786;2023-04-03T15:01:38;2.10;;;0.83;;
10874;SDS011;5490;52.200;8.786;2023-04-03T15:04:05;1.83;;;0.60;;
10874;SDS011;5490;52.200;8.786;2023-04-03T15:06:37;0.80;;;0.80;;
10874;SDS011;5490;52.200;8.786;2023-04-03T15:09:08;1.20;;;0.60;;
10874;SDS011;5490;52.200;8.786;2023-04-03T15:11:41;2.53;;;1.40;;
10874;SDS011;5490;52.200;8.786;2023-04-03T15:14:08;2.10;;;1.23;;
10874;SDS011;5490;52.200;8.786;2023-04-03T15:16:35;0.63;;;0.63;;
10874;SDS011;5490;52.200;8.786;2023-04-03T15:19:02;3.00;;;0.70;;
10874;SDS011;5490;52.200;8.786;2023-04-03T15:21:29;0.60;;;0.60;;
10874;SDS011;5490;52.200;8.786;2023-04-03T15:24:33;0.77;;;0.67;;
10874;SDS011;5490;52.200;8.786;2023-04-03T15:27:00;2.90;;;0.70;;
10874;SDS011;5490;52.200;8.786;2023-04-03T15:29:27;0.63;;;0.50;;
10874;SDS011;5490;52.200;8.786;2023-04-03T15:31:54;1.97;;;1.10;;
10874;SDS011;5490;52.200;8.786;2023-04-03T15:34:21;2.97;;;1.00;;
10874;SDS011;5490;52.200;8.786;2023-04-03T15:36:48;1.33;;;0.60;;
10874;SDS011;5490;52.200;8.786;2023-04-03T15:39:17;0.77;;;0.73;;
10874;SDS011;5490;52.200;8.786;2023-04-03T15:41:46;4.37;;;0.73;;
10874;SDS011;5490;52.200;8.786;2023-04-03T15:44:13;1.30;;;0.87;;
10874;SDS011;5490;52.200;8.786;2023-04-03T15:46:42;2.20;;;1.30;;
10874;SDS011;5490;52.200;8.786;2023-04-03T15:49:09;2.20;;;0.50;;
10874;SDS011;5490;52.200;8.786;2023-04-03T15:51:42;4.23;;;1.47;;
10874;SDS011;5490;52.200;8.786;2023-04-03T15:54:09;0.33;;;0.33;;
10874;SDS011;5490;52.200;8.786;2023-04-03T15:56:35;0.93;;;0.60;;
10874;SDS011;5490;52.200;8.786;2023-04-03T15:59:04;1.47;;;0.90;;
10874;SDS011;5490;52.200;8.786;2023-04-03T16:01:31;2.53;;;1.10;;
10874;SDS011;5490;52.200;8.786;2023-04-03T16:03:58;2.87;;;0.60;;
10874;SDS011;5490;52.200;8.786;2023-04-03T16:06:25;2.23;;;1.03;;
10874;SDS011;5490;52.200;8.786;2023-04-03T16:08:54;1.53;;;0.70;;
10874;SDS011;5490;52.200;8.786;2023-04-03T16:11:23;0.93;;;0.70;;
10874;SDS011;5490;52.200;8.786;2023-04-03T16:13:49;0.70;;;0.63;;
10874;SDS011;5490;52.200;8.786;2023-04-03T16:16:17;1.43;;;0.93;;
10874;SDS011;5490;52.200;8.786;2023-04-03T16:18:45;1.23;;;0.60;;
10874;SDS011;5490;52.200;8.786;2023-04-03T16:21:13;3.53;;;1.13;;
10874;SDS011;5490;52.200;8.786;2023-04-03T16:23:57;1.77;;;1.10;;
10874;SDS011;5490;52.200;8.786;2023-04-03T16:26:24;1.47;;;0.80;;
10874;SDS011;5490;52.200;8.786;2023-04-03T16:28:51;1.23;;;0.80;;
10874;SDS011;5490;52.200;8.786;2023-04-03T16:31:20;4.30;;;1.00;;
10874;SDS011;5490;52.200;8.786;2023-04-03T16:33:47;1.07;;;0.77;;
10874;SDS011;5490;52.200;8.786;2023-04-03T16:36:14;4.43;;;1.10;;
10874;SDS011;5490;52.200;8.786;2023-04-03T16:38:41;3.70;;;1.00;;
10874;SDS011;5490;52.200;8.786;2023-04-03T16:41:07;1.67;;;0.80;;
10874;SDS011;5490;52.200;8.786;2023-04-03T16:43:34;0.80;;;0.73;;
10874;SDS011;5490;52.200;8.786;2023-04-03T16:46:02;1.10;;;0.60;;
10874;SDS011;5490;52.200;8.786;2023-04-03T16:48:30;1.60;;;0.60;;
10874;SDS011;5490;52.200;8.786;2023-04-03T16:50:57;1.27;;;0.80;;
10874;SDS011;5490;52.200;8.786;2023-04-03T16:53:25;0.50;;;0.50;;
10874;SDS011;5490;52.200;8.786;2023-04-03T16:55:52;4.77;;;1.60;;
10874;SDS011;5490;52.200;8.786;2023-04-03T16:58:19;3.53;;;1.07;;
10874;SDS011;5490;52.200;8.786;2023-04-03T17:00:47;1.77;;;1.10;;
10874;SDS011;5490;52.200;8.786;2023-04-03T17:03:14;1.10;;;0.70;;
10874;SDS011;5490;52.200;8.786;2023-04-03T17:05:48;2.17;;;1.13;;
10874;SDS011;5490;52.200;8.786;2023-04-03T17:08:16;1.50;;;0.67;;
10874;SDS011;5490;52.200;8.786;2023-04-03T17:10:43;1.70;;;0.80;;
10874;SDS011;5490;52.200;8.786;2023-04-03T17:13:11;1.47;;;0.90;;
10874;SDS011;5490;52.200;8.786;2023-04-03T17:15:37;1.30;;;0.60;;
10874;SDS011;5490;52.200;8.786;2023-04-03T17:26:23;1.80;;;1.07;;
10874;SDS011;5490;52.200;8.786;2023-04-03T17:28:50;1.77;;;1.23;;
10874;SDS011;5490;52.200;8.786;2023-04-03T17:31:18;0.57;;;0.57;;
10874;SDS011;5490;52.200;8.786;2023-04-03T17:33:45;1.00;;;0.90;;
10874;SDS011;5490;52.200;8.786;2023-04-03T17:36:14;1.87;;;0.90;;
10874;SDS011;5490;52.200;8.786;2023-04-03T17:38:55;1.73;;;1.00;;
10874;SDS011;5490;52.200;8.786;2023-04-03T17:41:23;3.87;;;1.00;;
10874;SDS011;5490;52.200;8.786;2023-04-03T17:43:50;1.67;;;0.80;;
10874;SDS011;5490;52.200;8.786;2023-04-03T17:46:20;2.77;;;1.23;;
10874;SDS011;5490;52.200;8.786;2023-04-03T17:48:55;6.43;;;2.40;;
10874;SDS011;5490;52.200;8.786;2023-04-03T17:51:25;2.03;;;1.03;;
10874;SDS011;5490;52.200;8.786;2023-04-03T17:53:58;3.50;;;0.70;;
10874;SDS011;5490;52.200;8.786;2023-04-03T17:56:26;2.43;;;0.80;;
10874;SDS011;5490;52.200;8.786;2023-04-03T17:58:54;3.87;;;1.30;;
10874;SDS011;5490;52.200;8.786;2023-04-03T18:01:22;1.13;;;0.97;;
10874;SDS011;5490;52.200;8.786;2023-04-03T18:09:59;0.93;;;0.83;;
10874;SDS011;5490;52.200;8.786;2023-04-03T18:12:28;1.33;;;0.50;;
10874;SDS011;5490;52.200;8.786;2023-04-03T18:14:56;1.63;;;0.90;;
10874;SDS011;5490;52.200;8.786;2023-04-03T18:17:25;1.53;;;0.90;;
10874;SDS011;5490;52.200;8.786;2023-04-03T19:03:44;3.50;;;1.60;;
10874;SDS011;5490;52.200;8.786;2023-04-03T19:06:11;1.60;;;1.40;;
10874;SDS011;5490;52.200;8.786;2023-04-03T19:08:40;3.60;;;1.53;;
10874;SDS011;5490;52.200;8.786;2023-04-03T19:11:07;3.53;;;1.93;;
10874;SDS011;5490;52.200;8.786;2023-04-03T19:13:33;2.60;;;1.67;;
10874;SDS011;5490;52.200;8.786;2023-04-03T19:16:00;4.10;;;2.00;;
10874;SDS011;5490;52.200;8.786;2023-04-03T19:18:27;3.80;;;2.10;;
10874;SDS011;5490;52.200;8.786;2023-04-03T19:20:56;7.27;;;2.10;;
10874;SDS011;5490;52.200;8.786;2023-04-03T19:23:23;3.13;;;1.40;;
10874;SDS011;5490;52.200;8.786;2023-04-03T19:25:56;3.37;;;2.20;;
10874;SDS011;5490;52.200;8.786;2023-04-03T19:28:24;7.23;;;2.50;;
10874;SDS011;5490;52.200;8.786;2023-04-03T19:30:51;6.80;;;2.93;;
10874;SDS011;5490;52.200;8.786;2023-04-03T19:33:19;4.97;;;2.37;;
10874;SDS011;5490;52.200;8.786;2023-04-03T19:35:46;5.93;;;2.43;;
10874;SDS011;5490;52.200;8.786;2023-04-03T19:38:14;6.27;;;2.50;;
10874;SDS011;5490;52.200;8.786;2023-04-03T22:37:14;2.43;;;1.67;;
10874;SDS011;5490;52.200;8.786;2023-04-03T22:39:40;3.63;;;1.90;;
10874;SDS011;5490;52.200;8.786;2023-04-03T22:42:07;4.07;;;2.17;;
10874;SDS011;5490;52.200;8.786;2023-04-03T22:44:34;3.47;;;1.63;;
10874;SDS011;5490;52.200;8.786;2023-04-03T22:47:00;2.10;;;1.43;;
10874;SDS011;5490;52.200;8.786;2023-04-03T22:49:27;3.63;;;1.70;;
10874;SDS011;5490;52.200;8.786;2023-04-03T22:51:55;2.20;;;1.60;;
10874;SDS011;5490;52.200;8.786;2023-04-03T22:54:23;3.07;;;1.80;;
10874;SDS011;5490;52.200;8.786;2023-04-03T22:56:49;2.83;;;1.70;;
10874;SDS011;5490;52.200;8.786;2023-04-03T22:59:16;5.07;;;1.67;;
10874;SDS011;5490;52.200;8.786;2023-04-03T23:01:43;3.27;;;1.80;;
10874;SDS011;5490;52.200;8.786;2023-04-03T23:04:09;2.07;;;1.60;;
10874;SDS011;5490;52.200;8.786;2023-04-03T23:06:36;6.00;;;2.30;;
10874;SDS011;5490;52.200;8.786;2023-04-03T23:09:03;4.27;;;2.00;;
10874;SDS011;5490;52.200;8.786;2023-04-03T23:11:31;3.87;;;2.03;;
10874;SDS011;5490;52.200;8.786;2023-04-03T23:13:57;3.50;;;1.90;;
10874;SDS011;5490;52.200;8.786;2023-04-03T23:16:24;4.10;;;1.93;;
10874;SDS011;5490;52.200;8.786;2023-04-03T23:18:51;4.53;;;1.93;;
10874;SDS011;5490;52.200;8.786;2023-04-03T23:21:17;2.17;;;1.40;;
10874;SDS011;5490;52.200;8.786;2023-04-03T23:23:44;3.23;;;1.77;;
10874;SDS011;5490;52.200;8.786;2023-04-03T23:26:11;2.87;;;1.47;;
10874;SDS011;5490;52.200;8.786;2023-04-03T23:28:39;6.00;;;1.37;;
10874;SDS011;5490;52.200;8.786;2023-04-03T23:31:06;4.47;;;1.73;;
10874;SDS011;5490;52.200;8.786;2023-04-03T23:33:35;3.40;;;1.60;;
10874;SDS011;5490;52.200;8.786;2023-04-03T23:36:04;3.23;;;1.50;;
10874;SDS011;5490;52.200;8.786;2023-04-03T23:38:32;3.07;;;1.60;;
10874;SDS011;5490;52.200;8.786;2023-04-03T23:40:59;3.47;;;2.07;;
10874;SDS011;5490;52.200;8.786;2023-04-03T23:43:26;2.73;;;1.60;;
10874;SDS011;5490;52.200;8.786;2023-04-03T23:45:54;3.47;;;2.20;;
10874;SDS011;5490;52.200;8.786;2023-04-03T23:48:21;6.93;;;2.00;;
10874;SDS011;5490;52.200;8.786;2023-04-03T23:50:48;4.13;;;1.70;;
10874;SDS011;5490;52.200;8.786;2023-04-03T23:53:14;3.33;;;2.20;;
10874;SDS011;5490;52.200;8.786;2023-04-03T23:55:41;4.00;;;2.00;;
10874;SDS011;5490;52.200;8.786;2023-04-03T23:58:08;2.90;;;1.57;;
